sensor_id;sensor_type;location;lat;lon;timestamp;P1;durP1;ratioP1;P2;durP2;ratioP2
20230;SDS011;10274;49.022;9.338;2023-05-07T00:00:53;1.07;;;1.00;;
20230;SDS011;10274;49.022;9.338;2023-05-07T00:03:21;1.20;;;1.10;;
20230;SDS011;10274;49.022;9.338;2023-05-07T00:05:48;1.30;;;1.20;;
20230;SDS011;10274;49.022;9.338;2023-05-07T00:08:14;1.80;;;1.07;;
20230;SDS011;10274;49.022;9.338;2023-05-07T00:10:41;1.37;;;1.17;;
20230;SDS011;10274;49.022;9.338;2023-05-07T00:13:08;1.47;;;1.37;;
20230;SDS011;10274;49.022;9.338;2023-05-07T00:15:34;1.37;;;1.23;;
20230;SDS011;10274;49.022;9.338;2023-05-07T00:18:01;1.53;;;1.33;;
20230;SDS011;10274;49.022;9.338;2023-05-07T00:20:29;1.10;;;1.00;;
20230;SDS011;10274;49.022;9.338;2023-05-07T00:22:56;1.40;;;1.30;;
20230;SDS011;10274;49.022;9.338;2023-05-07T00:25:23;1.47;;;1.37;;
20230;SDS011;10274;49.022;9.338;2023-05-07T00:27:49;1.20;;;1.10;;
20230;SDS011;10274;49.022;9.338;2023-05-07T00:30:16;0.90;;;0.90;;
20230;SDS011;10274;49.022;9.338;2023-05-07T00:32:43;1.40;;;1.30;;
20230;SDS011;10274;49.022;9.338;2023-05-07T00:35:10;1.23;;;1.10;;
20230;SDS011;10274;49.022;9.338;2023-05-07T00:37:39;1.50;;;1.10;;
20230;SDS011;10274;49.022;9.338;2023-05-07T00:40:06;0.93;;;0.93;;
20230;SDS011;10274;49.022;9.338;2023-05-07T00:42:33;1.30;;;1.20;;
20230;SDS011;10274;49.022;9.338;2023-05-07T00:45:00;1.80;;;1.13;;
20230;SDS011;10274;49.022;9.338;2023-05-07T00:47:27;1.53;;;1.43;;
20230;SDS011;10274;49.022;9.338;2023-05-07T00:49:54;1.27;;;1.17;;
20230;SDS011;10274;49.022;9.338;2023-05-07T00:52:22;1.20;;;1.10;;
20230;SDS011;10274;49.022;9.338;2023-05-07T00:54:53;1.20;;;1.10;;
20230;SDS011;10274;49.022;9.338;2023-05-07T00:57:21;1.40;;;1.30;;
20230;SDS011;10274;49.022;9.338;2023-05-07T00:59:48;1.50;;;1.40;;
20230;SDS011;10274;49.022;9.338;2023-05-07T01:02:16;1.67;;;1.27;;
20230;SDS011;10274;49.022;9.338;2023-05-07T01:04:43;1.27;;;1.17;;
20230;SDS011;10274;49.022;9.338;2023-05-07T01:07:10;1.53;;;1.17;;
20230;SDS011;10274;49.022;9.338;2023-05-07T01:09:37;1.77;;;1.27;;
20230;SDS011;10274;49.022;9.338;2023-05-07T01:12:05;0.90;;;0.90;;
20230;SDS011;10274;49.022;9.338;2023-05-07T01:14:33;1.40;;;1.30;;
20230;SDS011;10274;49.022;9.338;2023-05-07T01:17:00;1.53;;;1.20;;
20230;SDS011;10274;49.022;9.338;2023-05-07T01:19:28;1.33;;;1.23;;
20230;SDS011;10274;49.022;9.338;2023-05-07T01:21:57;1.53;;;1.03;;
20230;SDS011;10274;49.022;9.338;2023-05-07T01:24:30;1.43;;;1.30;;
20230;SDS011;10274;49.022;9.338;2023-05-07T01:26:57;1.10;;;1.10;;
20230;SDS011;10274;49.022;9.338;2023-05-07T01:29:26;2.33;;;1.47;;
20230;SDS011;10274;49.022;9.338;2023-05-07T01:31:53;1.30;;;1.10;;
20230;SDS011;10274;49.022;9.338;2023-05-07T01:34:20;1.43;;;1.33;;
20230;SDS011;10274;49.022;9.338;2023-05-07T01:36:48;1.87;;;1.13;;
20230;SDS011;10274;49.022;9.338;2023-05-07T01:39:15;1.27;;;1.17;;
20230;SDS011;10274;49.022;9.338;2023-05-07T01:41:44;1.27;;;1.17;;
20230;SDS011;10274;49.022;9.338;2023-05-07T01:44:12;1.17;;;1.07;;
20230;SDS011;10274;49.022;9.338;2023-05-07T01:46:39;0.93;;;0.93;;
20230;SDS011;10274;49.022;9.338;2023-05-07T01:49:06;0.93;;;0.83;;
20230;SDS011;10274;49.022;9.338;2023-05-07T01:51:33;1.83;;;1.30;;
20230;SDS011;10274;49.022;9.338;2023-05-07T01:54:00;1.37;;;1.10;;
20230;SDS011;10274;49.022;9.338;2023-05-07T01:56:26;1.40;;;1.30;;
20230;SDS011;10274;49.022;9.338;2023-05-07T01:58:54;1.73;;;1.30;;
20230;SDS011;10274;49.022;9.338;2023-05-07T02:01:21;0.87;;;0.87;;
20230;SDS011;10274;49.022;9.338;2023-05-07T02:03:48;1.00;;;0.90;;
20230;SDS011;10274;49.022;9.338;2023-05-07T02:06:15;0.93;;;0.93;;
20230;SDS011;10274;49.022;9.338;2023-05-07T02:08:41;2.73;;;1.30;;
20230;SDS011;10274;49.022;9.338;2023-05-07T02:11:08;1.10;;;1.00;;
20230;SDS011;10274;49.022;9.338;2023-05-07T02:13:35;1.17;;;1.07;;
20230;SDS011;10274;49.022;9.338;2023-05-07T02:16:03;2.07;;;1.30;;
20230;SDS011;10274;49.022;9.338;2023-05-07T02:18:30;1.30;;;1.20;;
20230;SDS011;10274;49.022;9.338;2023-05-07T02:20:58;1.20;;;1.00;;
20230;SDS011;10274;49.022;9.338;2023-05-07T02:23:24;2.07;;;1.30;;
20230;SDS011;10274;49.022;9.338;2023-05-07T02:25:51;1.00;;;0.90;;
20230;SDS011;10274;49.022;9.338;2023-05-07T02:28:18;1.40;;;1.30;;
20230;SDS011;10274;49.022;9.338;2023-05-07T02:30:44;1.60;;;1.33;;
20230;SDS011;10274;49.022;9.338;2023-05-07T02:33:12;1.60;;;1.27;;
20230;SDS011;10274;49.022;9.338;2023-05-07T02:35:39;2.13;;;1.60;;
20230;SDS011;10274;49.022;9.338;2023-05-07T02:38:06;1.87;;;1.10;;
20230;SDS011;10274;49.022;9.338;2023-05-07T02:40:35;1.40;;;1.30;;
20230;SDS011;10274;49.022;9.338;2023-05-07T02:43:03;1.40;;;1.30;;
20230;SDS011;10274;49.022;9.338;2023-05-07T02:45:30;1.60;;;1.50;;
20230;SDS011;10274;49.022;9.338;2023-05-07T02:47:57;1.60;;;1.50;;
20230;SDS011;10274;49.022;9.338;2023-05-07T02:50:25;1.83;;;1.50;;
20230;SDS011;10274;49.022;9.338;2023-05-07T02:52:52;2.10;;;1.70;;
20230;SDS011;10274;49.022;9.338;2023-05-07T02:55:18;1.50;;;1.40;;
20230;SDS011;10274;49.022;9.338;2023-05-07T02:57:45;2.70;;;1.47;;
20230;SDS011;10274;49.022;9.338;2023-05-07T03:00:12;2.13;;;1.50;;
20230;SDS011;10274;49.022;9.338;2023-05-07T03:02:40;1.20;;;1.10;;
20230;SDS011;10274;49.022;9.338;2023-05-07T03:05:07;1.50;;;1.40;;
20230;SDS011;10274;49.022;9.338;2023-05-07T03:07:35;1.40;;;1.30;;
20230;SDS011;10274;49.022;9.338;2023-05-07T03:10:03;1.47;;;1.37;;
20230;SDS011;10274;49.022;9.338;2023-05-07T03:12:30;2.63;;;1.77;;
20230;SDS011;10274;49.022;9.338;2023-05-07T03:14:57;1.40;;;1.30;;
20230;SDS011;10274;49.022;9.338;2023-05-07T03:17:24;1.83;;;1.37;;
20230;SDS011;10274;49.022;9.338;2023-05-07T03:19:50;1.63;;;1.50;;
20230;SDS011;10274;49.022;9.338;2023-05-07T03:22:17;2.60;;;1.53;;
20230;SDS011;10274;49.022;9.338;2023-05-07T03:24:45;1.40;;;1.30;;
20230;SDS011;10274;49.022;9.338;2023-05-07T03:27:12;1.40;;;1.30;;
20230;SDS011;10274;49.022;9.338;2023-05-07T03:29:39;1.17;;;1.07;;
20230;SDS011;10274;49.022;9.338;2023-05-07T03:32:05;1.40;;;1.30;;
20230;SDS011;10274;49.022;9.338;2023-05-07T03:34:32;1.40;;;1.30;;
20230;SDS011;10274;49.022;9.338;2023-05-07T03:36:59;1.53;;;1.43;;
20230;SDS011;10274;49.022;9.338;2023-05-07T03:39:26;1.70;;;1.47;;
20230;SDS011;10274;49.022;9.338;2023-05-07T03:41:54;2.53;;;1.50;;
20230;SDS011;10274;49.022;9.338;2023-05-07T03:44:20;2.87;;;1.50;;
20230;SDS011;10274;49.022;9.338;2023-05-07T03:46:47;1.60;;;1.50;;
20230;SDS011;10274;49.022;9.338;2023-05-07T03:49:14;1.67;;;1.57;;
20230;SDS011;10274;49.022;9.338;2023-05-07T03:51:40;1.70;;;1.47;;
20230;SDS011;10274;49.022;9.338;2023-05-07T03:54:07;1.80;;;1.57;;
20230;SDS011;10274;49.022;9.338;2023-05-07T03:56:34;1.90;;;1.47;;
20230;SDS011;10274;49.022;9.338;2023-05-07T03:59:02;2.10;;;1.30;;
20230;SDS011;10274;49.022;9.338;2023-05-07T04:01:28;1.70;;;1.50;;
20230;SDS011;10274;49.022;9.338;2023-05-07T04:03:55;1.93;;;1.50;;
20230;SDS011;10274;49.022;9.338;2023-05-07T04:06:22;1.53;;;1.40;;
20230;SDS011;10274;49.022;9.338;2023-05-07T04:08:49;1.47;;;1.37;;
20230;SDS011;10274;49.022;9.338;2023-05-07T04:11:15;1.70;;;1.60;;
20230;SDS011;10274;49.022;9.338;2023-05-07T04:13:42;1.90;;;1.60;;
20230;SDS011;10274;49.022;9.338;2023-05-07T04:16:10;1.50;;;1.33;;
20230;SDS011;10274;49.022;9.338;2023-05-07T04:18:37;1.97;;;1.57;;
20230;SDS011;10274;49.022;9.338;2023-05-07T04:21:04;1.70;;;1.60;;
20230;SDS011;10274;49.022;9.338;2023-05-07T04:23:30;1.43;;;1.20;;
20230;SDS011;10274;49.022;9.338;2023-05-07T04:25:57;1.83;;;1.43;;
20230;SDS011;10274;49.022;9.338;2023-05-07T04:28:24;1.53;;;1.40;;
20230;SDS011;10274;49.022;9.338;2023-05-07T04:30:51;1.20;;;1.10;;
20230;SDS011;10274;49.022;9.338;2023-05-07T04:33:19;1.50;;;1.40;;
20230;SDS011;10274;49.022;9.338;2023-05-07T04:35:45;1.77;;;1.50;;
20230;SDS011;10274;49.022;9.338;2023-05-07T04:38:12;1.47;;;1.20;;
20230;SDS011;10274;49.022;9.338;2023-05-07T04:40:39;2.43;;;1.23;;
20230;SDS011;10274;49.022;9.338;2023-05-07T04:43:06;1.33;;;1.23;;
20230;SDS011;10274;49.022;9.338;2023-05-07T04:45:34;1.23;;;1.13;;
20230;SDS011;10274;49.022;9.338;2023-05-07T04:48:01;1.40;;;1.17;;
20230;SDS011;10274;49.022;9.338;2023-05-07T04:50:29;1.40;;;1.27;;
20230;SDS011;10274;49.022;9.338;2023-05-07T04:52:56;1.73;;;1.53;;
20230;SDS011;10274;49.022;9.338;2023-05-07T04:55:22;1.50;;;1.40;;
20230;SDS011;10274;49.022;9.338;2023-05-07T04:57:49;1.50;;;1.40;;
20230;SDS011;10274;49.022;9.338;2023-05-07T05:00:16;1.40;;;1.13;;
20230;SDS011;10274;49.022;9.338;2023-05-07T05:02:44;1.20;;;1.10;;
20230;SDS011;10274;49.022;9.338;2023-05-07T05:05:11;1.20;;;1.10;;
20230;SDS011;10274;49.022;9.338;2023-05-07T05:07:39;2.07;;;1.20;;
20230;SDS011;10274;49.022;9.338;2023-05-07T05:10:06;1.30;;;1.20;;
20230;SDS011;10274;49.022;9.338;2023-05-07T05:12:32;1.30;;;1.20;;
20230;SDS011;10274;49.022;9.338;2023-05-07T05:14:59;1.67;;;1.30;;
20230;SDS011;10274;49.022;9.338;2023-05-07T05:17:26;1.00;;;0.90;;
20230;SDS011;10274;49.022;9.338;2023-05-07T05:19:52;1.20;;;1.10;;
20230;SDS011;10274;49.022;9.338;2023-05-07T05:22:19;0.80;;;0.80;;
20230;SDS011;10274;49.022;9.338;2023-05-07T05:24:47;1.20;;;1.10;;
20230;SDS011;10274;49.022;9.338;2023-05-07T05:27:14;1.27;;;1.17;;
20230;SDS011;10274;49.022;9.338;2023-05-07T05:29:40;1.30;;;1.20;;
20230;SDS011;10274;49.022;9.338;2023-05-07T05:32:07;1.60;;;1.40;;
20230;SDS011;10274;49.022;9.338;2023-05-07T05:34:34;2.00;;;1.53;;
20230;SDS011;10274;49.022;9.338;2023-05-07T05:37:00;1.70;;;1.50;;
20230;SDS011;10274;49.022;9.338;2023-05-07T05:39:27;1.20;;;1.10;;
20230;SDS011;10274;49.022;9.338;2023-05-07T05:41:55;1.00;;;1.00;;
20230;SDS011;10274;49.022;9.338;2023-05-07T05:44:22;1.40;;;0.97;;
20230;SDS011;10274;49.022;9.338;2023-05-07T05:46:48;1.63;;;1.20;;
20230;SDS011;10274;49.022;9.338;2023-05-07T05:49:15;0.90;;;0.90;;
20230;SDS011;10274;49.022;9.338;2023-05-07T05:51:42;1.00;;;0.90;;
20230;SDS011;10274;49.022;9.338;2023-05-07T05:54:09;1.40;;;1.30;;
20230;SDS011;10274;49.022;9.338;2023-05-07T05:56:36;1.20;;;1.10;;
20230;SDS011;10274;49.022;9.338;2023-05-07T05:59:04;1.20;;;1.10;;
20230;SDS011;10274;49.022;9.338;2023-05-07T06:01:31;2.00;;;1.47;;
20230;SDS011;10274;49.022;9.338;2023-05-07T06:03:58;1.83;;;1.40;;
20230;SDS011;10274;49.022;9.338;2023-05-07T06:06:24;2.97;;;2.17;;
20230;SDS011;10274;49.022;9.338;2023-05-07T06:08:52;2.43;;;2.23;;
20230;SDS011;10274;49.022;9.338;2023-05-07T06:11:19;2.27;;;2.07;;
20230;SDS011;10274;49.022;9.338;2023-05-07T06:13:46;3.63;;;2.90;;
20230;SDS011;10274;49.022;9.338;2023-05-07T06:16:14;2.60;;;2.30;;
20230;SDS011;10274;49.022;9.338;2023-05-07T06:18:40;2.20;;;2.00;;
20230;SDS011;10274;49.022;9.338;2023-05-07T06:21:07;2.27;;;1.97;;
20230;SDS011;10274;49.022;9.338;2023-05-07T06:23:34;2.73;;;2.43;;
20230;SDS011;10274;49.022;9.338;2023-05-07T06:26:00;4.53;;;3.40;;
20230;SDS011;10274;49.022;9.338;2023-05-07T06:28:27;3.37;;;2.73;;
20230;SDS011;10274;49.022;9.338;2023-05-07T06:30:55;3.27;;;2.77;;
20230;SDS011;10274;49.022;9.338;2023-05-07T06:33:37;2.47;;;2.27;;
20230;SDS011;10274;49.022;9.338;2023-05-07T06:36:04;2.40;;;2.20;;
20230;SDS011;10274;49.022;9.338;2023-05-07T06:38:32;2.07;;;1.87;;
20230;SDS011;10274;49.022;9.338;2023-05-07T06:40:58;2.03;;;1.87;;
20230;SDS011;10274;49.022;9.338;2023-05-07T06:43:25;2.37;;;1.90;;
20230;SDS011;10274;49.022;9.338;2023-05-07T06:45:52;1.57;;;1.47;;
20230;SDS011;10274;49.022;9.338;2023-05-07T06:48:19;2.13;;;1.83;;
20230;SDS011;10274;49.022;9.338;2023-05-07T06:53:14;3.13;;;1.90;;
20230;SDS011;10274;49.022;9.338;2023-05-07T06:55:41;1.83;;;1.43;;
20230;SDS011;10274;49.022;9.338;2023-05-07T06:58:08;1.47;;;1.37;;
20230;SDS011;10274;49.022;9.338;2023-05-07T07:00:34;2.37;;;1.63;;
20230;SDS011;10274;49.022;9.338;2023-05-07T07:03:01;1.67;;;1.53;;
20230;SDS011;10274;49.022;9.338;2023-05-07T07:05:28;1.27;;;1.17;;
20230;SDS011;10274;49.022;9.338;2023-05-07T07:07:54;1.63;;;1.40;;
20230;SDS011;10274;49.022;9.338;2023-05-07T07:10:22;1.53;;;1.30;;
20230;SDS011;10274;49.022;9.338;2023-05-07T07:12:49;1.40;;;1.30;;
20230;SDS011;10274;49.022;9.338;2023-05-07T07:15:17;1.40;;;1.30;;
20230;SDS011;10274;49.022;9.338;2023-05-07T07:17:45;1.63;;;1.07;;
20230;SDS011;10274;49.022;9.338;2023-05-07T07:20:12;1.50;;;1.23;;
20230;SDS011;10274;49.022;9.338;2023-05-07T07:22:39;0.87;;;0.87;;
20230;SDS011;10274;49.022;9.338;2023-05-07T07:25:06;1.17;;;1.07;;
20230;SDS011;10274;49.022;9.338;2023-05-07T07:27:35;0.80;;;0.80;;
20230;SDS011;10274;49.022;9.338;2023-05-07T07:30:02;0.90;;;0.90;;
20230;SDS011;10274;49.022;9.338;2023-05-07T07:32:29;1.43;;;1.33;;
20230;SDS011;10274;49.022;9.338;2023-05-07T07:34:57;1.37;;;0.93;;
20230;SDS011;10274;49.022;9.338;2023-05-07T07:37:24;0.93;;;0.93;;
20230;SDS011;10274;49.022;9.338;2023-05-07T07:39:50;1.10;;;0.90;;
20230;SDS011;10274;49.022;9.338;2023-05-07T07:42:17;1.10;;;0.77;;
20230;SDS011;10274;49.022;9.338;2023-05-07T07:44:45;0.80;;;0.80;;
20230;SDS011;10274;49.022;9.338;2023-05-07T07:47:12;1.03;;;0.70;;
20230;SDS011;10274;49.022;9.338;2023-05-07T07:49:38;0.83;;;0.80;;
20230;SDS011;10274;49.022;9.338;2023-05-07T07:52:05;1.07;;;0.80;;
20230;SDS011;10274;49.022;9.338;2023-05-07T07:54:32;0.90;;;0.90;;
20230;SDS011;10274;49.022;9.338;2023-05-07T07:56:59;0.80;;;0.80;;
20230;SDS011;10274;49.022;9.338;2023-05-07T07:59:26;1.23;;;0.90;;
20230;SDS011;10274;49.022;9.338;2023-05-07T08:01:54;0.90;;;0.90;;
20230;SDS011;10274;49.022;9.338;2023-05-07T08:04:22;0.70;;;0.70;;
20230;SDS011;10274;49.022;9.338;2023-05-07T08:06:48;1.60;;;1.13;;
20230;SDS011;10274;49.022;9.338;2023-05-07T08:09:15;1.70;;;1.10;;
20230;SDS011;10274;49.022;9.338;2023-05-07T08:11:42;1.70;;;0.80;;
20230;SDS011;10274;49.022;9.338;2023-05-07T08:14:08;1.47;;;1.37;;
20230;SDS011;10274;49.022;9.338;2023-05-07T08:16:35;2.17;;;1.20;;
20230;SDS011;10274;49.022;9.338;2023-05-07T08:19:03;1.07;;;0.80;;
20230;SDS011;10274;49.022;9.338;2023-05-07T08:21:30;1.30;;;1.03;;
20230;SDS011;10274;49.022;9.338;2023-05-07T08:23:57;1.13;;;1.03;;
20230;SDS011;10274;49.022;9.338;2023-05-07T08:26:24;1.93;;;0.90;;
20230;SDS011;10274;49.022;9.338;2023-05-07T08:28:50;1.37;;;1.13;;
20230;SDS011;10274;49.022;9.338;2023-05-07T08:31:17;0.63;;;0.63;;
20230;SDS011;10274;49.022;9.338;2023-05-07T08:33:44;0.80;;;0.80;;
20230;SDS011;10274;49.022;9.338;2023-05-07T08:36:12;0.80;;;0.80;;
20230;SDS011;10274;49.022;9.338;2023-05-07T08:38:38;0.80;;;0.80;;
20230;SDS011;10274;49.022;9.338;2023-05-07T08:41:09;1.73;;;0.93;;
20230;SDS011;10274;49.022;9.338;2023-05-07T08:43:36;1.05;;;0.70;;
20230;SDS011;10274;49.022;9.338;2023-05-07T08:46:06;0.98;;;0.95;;
20230;SDS011;10274;49.022;9.338;2023-05-07T08:48:35;1.00;;;0.82;;
20230;SDS011;10274;49.022;9.338;2023-05-07T08:51:02;1.08;;;0.70;;
20230;SDS011;10274;49.022;9.338;2023-05-07T08:53:30;0.80;;;0.75;;
20230;SDS011;10274;49.022;9.338;2023-05-07T08:55:59;1.55;;;0.88;;
20230;SDS011;10274;49.022;9.338;2023-05-07T08:58:25;2.20;;;1.13;;
20230;SDS011;10274;49.022;9.338;2023-05-07T09:00:52;1.15;;;0.77;;
20230;SDS011;10274;49.022;9.338;2023-05-07T09:03:19;0.70;;;0.70;;
20230;SDS011;10274;49.022;9.338;2023-05-07T09:05:46;0.80;;;0.80;;
20230;SDS011;10274;49.022;9.338;2023-05-07T09:08:14;0.68;;;0.68;;
20230;SDS011;10274;49.022;9.338;2023-05-07T09:10:43;1.20;;;1.02;;
20230;SDS011;10274;49.022;9.338;2023-05-07T09:13:10;1.75;;;0.75;;
20230;SDS011;10274;49.022;9.338;2023-05-07T09:15:39;2.03;;;1.13;;
20230;SDS011;10274;49.022;9.338;2023-05-07T09:18:06;0.85;;;0.75;;
20230;SDS011;10274;49.022;9.338;2023-05-07T09:20:32;1.98;;;1.02;;
20230;SDS011;10274;49.022;9.338;2023-05-07T09:22:59;0.70;;;0.70;;
20230;SDS011;10274;49.022;9.338;2023-05-07T09:25:29;0.80;;;0.80;;
20230;SDS011;10274;49.022;9.338;2023-05-07T09:27:58;0.80;;;0.80;;
20230;SDS011;10274;49.022;9.338;2023-05-07T09:30:27;0.80;;;0.80;;
20230;SDS011;10274;49.022;9.338;2023-05-07T09:32:55;0.83;;;0.80;;
20230;SDS011;10274;49.022;9.338;2023-05-07T09:35:22;1.50;;;0.93;;
20230;SDS011;10274;49.022;9.338;2023-05-07T09:37:51;1.23;;;0.80;;
20230;SDS011;10274;49.022;9.338;2023-05-07T09:40:21;1.23;;;0.90;;
20230;SDS011;10274;49.022;9.338;2023-05-07T09:42:49;0.95;;;0.90;;
20230;SDS011;10274;49.022;9.338;2023-05-07T09:45:17;1.63;;;0.97;;
20230;SDS011;10274;49.022;9.338;2023-05-07T09:47:47;1.35;;;0.85;;
20230;SDS011;10274;49.022;9.338;2023-05-07T09:50:16;0.70;;;0.70;;
20230;SDS011;10274;49.022;9.338;2023-05-07T09:52:45;0.63;;;0.63;;
20230;SDS011;10274;49.022;9.338;2023-05-07T09:55:12;0.80;;;0.80;;
20230;SDS011;10274;49.022;9.338;2023-05-07T09:57:39;0.77;;;0.70;;
20230;SDS011;10274;49.022;9.338;2023-05-07T10:00:08;0.80;;;0.80;;
20230;SDS011;10274;49.022;9.338;2023-05-07T10:02:38;1.15;;;0.90;;
20230;SDS011;10274;49.022;9.338;2023-05-07T10:05:11;0.98;;;0.73;;
20230;SDS011;10274;49.022;9.338;2023-05-07T10:07:39;0.75;;;0.75;;
20230;SDS011;10274;49.022;9.338;2023-05-07T10:10:06;1.13;;;1.02;;
20230;SDS011;10274;49.022;9.338;2023-05-07T10:12:34;1.33;;;0.90;;
20230;SDS011;10274;49.022;9.338;2023-05-07T10:15:04;0.80;;;0.80;;
20230;SDS011;10274;49.022;9.338;2023-05-07T10:17:32;1.13;;;0.70;;
20230;SDS011;10274;49.022;9.338;2023-05-07T10:20:02;1.40;;;0.90;;
20230;SDS011;10274;49.022;9.338;2023-05-07T10:22:30;0.80;;;0.80;;
20230;SDS011;10274;49.022;9.338;2023-05-07T10:25:03;0.70;;;0.70;;
20230;SDS011;10274;49.022;9.338;2023-05-07T10:27:35;0.77;;;0.77;;
20230;SDS011;10274;49.022;9.338;2023-05-07T10:30:05;0.73;;;0.73;;
20230;SDS011;10274;49.022;9.338;2023-05-07T10:32:43;0.70;;;0.70;;
20230;SDS011;10274;49.022;9.338;2023-05-07T10:35:15;1.20;;;0.80;;
20230;SDS011;10274;49.022;9.338;2023-05-07T10:37:44;1.20;;;1.10;;
20230;SDS011;10274;49.022;9.338;2023-05-07T10:40:12;0.77;;;0.70;;
20230;SDS011;10274;49.022;9.338;2023-05-07T10:42:52;0.90;;;0.90;;
20230;SDS011;10274;49.022;9.338;2023-05-07T10:45:21;1.70;;;1.00;;
20230;SDS011;10274;49.022;9.338;2023-05-07T10:48:05;0.90;;;0.90;;
20230;SDS011;10274;49.022;9.338;2023-05-07T10:50:34;0.60;;;0.60;;
20230;SDS011;10274;49.022;9.338;2023-05-07T10:55:49;0.70;;;0.70;;
20230;SDS011;10274;49.022;9.338;2023-05-07T10:58:22;2.13;;;0.95;;
20230;SDS011;10274;49.022;9.338;2023-05-07T11:00:50;0.90;;;0.90;;
20230;SDS011;10274;49.022;9.338;2023-05-07T11:03:21;1.13;;;1.02;;
20230;SDS011;10274;49.022;9.338;2023-05-07T11:05:49;0.75;;;0.75;;
20230;SDS011;10274;49.022;9.338;2023-05-07T11:11:44;0.70;;;0.70;;
20230;SDS011;10274;49.022;9.338;2023-05-07T11:14:12;1.42;;;1.02;;
20230;SDS011;10274;49.022;9.338;2023-05-07T11:16:40;0.82;;;0.82;;
20230;SDS011;10274;49.022;9.338;2023-05-07T11:19:09;0.80;;;0.80;;
20230;SDS011;10274;49.022;9.338;2023-05-07T11:21:37;1.55;;;0.90;;
20230;SDS011;10274;49.022;9.338;2023-05-07T11:24:05;0.75;;;0.75;;
20230;SDS011;10274;49.022;9.338;2023-05-07T11:26:43;1.08;;;0.90;;
20230;SDS011;10274;49.022;9.338;2023-05-07T11:29:11;0.63;;;0.63;;
20230;SDS011;10274;49.022;9.338;2023-05-07T11:31:39;0.82;;;0.82;;
20230;SDS011;10274;49.022;9.338;2023-05-07T11:34:06;1.48;;;0.90;;
20230;SDS011;10274;49.022;9.338;2023-05-07T11:36:33;1.10;;;1.00;;
20230;SDS011;10274;49.022;9.338;2023-05-07T11:39:01;1.13;;;0.63;;
20230;SDS011;10274;49.022;9.338;2023-05-07T11:41:34;0.82;;;0.82;;
20230;SDS011;10274;49.022;9.338;2023-05-07T11:44:02;1.30;;;0.88;;
20230;SDS011;10274;49.022;9.338;2023-05-07T11:46:29;0.80;;;0.80;;
20230;SDS011;10274;49.022;9.338;2023-05-07T11:48:56;0.80;;;0.80;;
20230;SDS011;10274;49.022;9.338;2023-05-07T11:51:23;1.10;;;1.00;;
20230;SDS011;10274;49.022;9.338;2023-05-07T11:53:52;0.60;;;0.60;;
20230;SDS011;10274;49.022;9.338;2023-05-07T11:56:20;0.73;;;0.73;;
20230;SDS011;10274;49.022;9.338;2023-05-07T11:58:47;0.70;;;0.70;;
20230;SDS011;10274;49.022;9.338;2023-05-07T12:01:16;0.90;;;0.90;;
20230;SDS011;10274;49.022;9.338;2023-05-07T12:03:43;0.90;;;0.90;;
20230;SDS011;10274;49.022;9.338;2023-05-07T12:06:11;1.45;;;1.00;;
20230;SDS011;10274;49.022;9.338;2023-05-07T12:08:40;0.90;;;0.90;;
20230;SDS011;10274;49.022;9.338;2023-05-07T12:11:08;0.73;;;0.60;;
20230;SDS011;10274;49.022;9.338;2023-05-07T12:13:37;1.10;;;1.00;;
20230;SDS011;10274;49.022;9.338;2023-05-07T12:16:05;0.88;;;0.88;;
20230;SDS011;10274;49.022;9.338;2023-05-07T12:18:32;0.90;;;0.90;;
20230;SDS011;10274;49.022;9.338;2023-05-07T12:21:01;1.25;;;1.00;;
20230;SDS011;10274;49.022;9.338;2023-05-07T12:23:28;1.00;;;0.98;;
20230;SDS011;10274;49.022;9.338;2023-05-07T12:25:55;0.80;;;0.80;;
20230;SDS011;10274;49.022;9.338;2023-05-07T12:28:22;0.63;;;0.60;;
20230;SDS011;10274;49.022;9.338;2023-05-07T12:30:50;1.02;;;0.70;;
20230;SDS011;10274;49.022;9.338;2023-05-07T12:33:18;1.00;;;0.90;;
20230;SDS011;10274;49.022;9.338;2023-05-07T12:35:49;0.73;;;0.73;;
20230;SDS011;10274;49.022;9.338;2023-05-07T12:38:16;1.55;;;0.88;;
20230;SDS011;10274;49.022;9.338;2023-05-07T12:40:45;0.95;;;0.77;;
20230;SDS011;10274;49.022;9.338;2023-05-07T12:43:15;2.35;;;0.80;;
20230;SDS011;10274;49.022;9.338;2023-05-07T12:45:43;1.40;;;1.00;;
20230;SDS011;10274;49.022;9.338;2023-05-07T12:48:12;1.10;;;1.00;;
20230;SDS011;10274;49.022;9.338;2023-05-07T12:50:39;1.15;;;1.00;;
20230;SDS011;10274;49.022;9.338;2023-05-07T12:53:06;1.13;;;1.02;;
20230;SDS011;10274;49.022;9.338;2023-05-07T12:55:39;1.80;;;0.85;;
20230;SDS011;10274;49.022;9.338;2023-05-07T12:58:07;0.82;;;0.82;;
20230;SDS011;10274;49.022;9.338;2023-05-07T13:00:34;0.80;;;0.80;;
20230;SDS011;10274;49.022;9.338;2023-05-07T13:03:02;1.98;;;0.80;;
20230;SDS011;10274;49.022;9.338;2023-05-07T13:05:30;0.65;;;0.65;;
20230;SDS011;10274;49.022;9.338;2023-05-07T13:07:57;1.35;;;1.00;;
20230;SDS011;10274;49.022;9.338;2023-05-07T13:10:24;2.60;;;1.05;;
20230;SDS011;10274;49.022;9.338;2023-05-07T13:12:51;0.90;;;0.90;;
20230;SDS011;10274;49.022;9.338;2023-05-07T13:15:18;2.08;;;0.80;;
20230;SDS011;10274;49.022;9.338;2023-05-07T13:17:45;1.00;;;1.00;;
20230;SDS011;10274;49.022;9.338;2023-05-07T13:20:12;0.80;;;0.80;;
20230;SDS011;10274;49.022;9.338;2023-05-07T13:22:40;2.22;;;1.50;;
20230;SDS011;10274;49.022;9.338;2023-05-07T13:25:07;0.80;;;0.80;;
20230;SDS011;10274;49.022;9.338;2023-05-07T13:27:34;1.00;;;1.00;;
20230;SDS011;10274;49.022;9.338;2023-05-07T13:30:02;0.90;;;0.90;;
20230;SDS011;10274;49.022;9.338;2023-05-07T13:32:29;0.87;;;0.87;;
20230;SDS011;10274;49.022;9.338;2023-05-07T13:34:57;1.30;;;1.00;;
20230;SDS011;10274;49.022;9.338;2023-05-07T13:37:23;3.00;;;1.10;;
20230;SDS011;10274;49.022;9.338;2023-05-07T13:39:51;0.77;;;0.77;;
20230;SDS011;10274;49.022;9.338;2023-05-07T13:42:18;1.13;;;0.77;;
20230;SDS011;10274;49.022;9.338;2023-05-07T13:44:45;0.70;;;0.70;;
20230;SDS011;10274;49.022;9.338;2023-05-07T13:47:11;1.33;;;0.63;;
20230;SDS011;10274;49.022;9.338;2023-05-07T13:49:38;0.80;;;0.80;;
20230;SDS011;10274;49.022;9.338;2023-05-07T13:52:05;0.70;;;0.70;;
20230;SDS011;10274;49.022;9.338;2023-05-07T13:54:31;0.60;;;0.60;;
20230;SDS011;10274;49.022;9.338;2023-05-07T13:56:59;1.30;;;1.00;;
20230;SDS011;10274;49.022;9.338;2023-05-07T13:59:26;1.13;;;1.00;;
20230;SDS011;10274;49.022;9.338;2023-05-07T14:01:53;1.00;;;1.00;;
20230;SDS011;10274;49.022;9.338;2023-05-07T14:04:20;1.13;;;1.03;;
20230;SDS011;10274;49.022;9.338;2023-05-07T14:06:47;2.03;;;0.73;;
20230;SDS011;10274;49.022;9.338;2023-05-07T14:09:14;1.10;;;1.00;;
20230;SDS011;10274;49.022;9.338;2023-05-07T14:11:40;1.07;;;0.97;;
20230;SDS011;10274;49.022;9.338;2023-05-07T14:14:08;1.00;;;0.90;;
20230;SDS011;10274;49.022;9.338;2023-05-07T14:16:36;1.63;;;1.20;;
20230;SDS011;10274;49.022;9.338;2023-05-07T14:19:03;1.13;;;1.03;;
20230;SDS011;10274;49.022;9.338;2023-05-07T14:21:29;1.60;;;1.50;;
20230;SDS011;10274;49.022;9.338;2023-05-07T14:23:56;1.20;;;1.10;;
20230;SDS011;10274;49.022;9.338;2023-05-07T14:26:24;1.87;;;1.40;;
20230;SDS011;10274;49.022;9.338;2023-05-07T14:28:52;1.00;;;1.00;;
20230;SDS011;10274;49.022;9.338;2023-05-07T14:31:21;1.27;;;1.17;;
20230;SDS011;10274;49.022;9.338;2023-05-07T14:33:47;1.88;;;1.17;;
20230;SDS011;10274;49.022;9.338;2023-05-07T14:36:15;1.30;;;1.00;;
20230;SDS011;10274;49.022;9.338;2023-05-07T14:38:42;2.20;;;1.20;;
20230;SDS011;10274;49.022;9.338;2023-05-07T14:41:08;1.90;;;1.00;;
20230;SDS011;10274;49.022;9.338;2023-05-07T14:43:35;1.70;;;1.30;;
20230;SDS011;10274;49.022;9.338;2023-05-07T14:46:02;1.10;;;1.00;;
20230;SDS011;10274;49.022;9.338;2023-05-07T14:48:30;1.30;;;1.20;;
20230;SDS011;10274;49.022;9.338;2023-05-07T14:50:56;1.40;;;1.05;;
20230;SDS011;10274;49.022;9.338;2023-05-07T14:53:23;1.42;;;0.98;;
20230;SDS011;10274;49.022;9.338;2023-05-07T14:55:50;1.00;;;0.90;;
20230;SDS011;10274;49.022;9.338;2023-05-07T14:58:16;1.10;;;1.00;;